sensor_id;sensor_type;location;lat;lon;timestamp;P1;durP1;ratioP1;P2;durP2;ratioP2
78053;SDS011;67726;45.636;11.752;2023-03-08T00:00:34;64.20;;;30.13;;
78053;SDS011;67726;45.636;11.752;2023-03-08T00:03:00;60.97;;;29.15;;
78053;SDS011;67726;45.636;11.752;2023-03-08T00:05:26;64.97;;;27.80;;
78053;SDS011;67726;45.636;11.752;2023-03-08T00:07:52;60.58;;;29.05;;
78053;SDS011;67726;45.636;11.752;2023-03-08T00:10:18;54.07;;;27.90;;
78053;SDS011;67726;45.636;11.752;2023-03-08T00:12:44;59.72;;;28.35;;
78053;SDS011;67726;45.636;11.752;2023-03-08T00:15:10;79.00;;;34.90;;
78053;SDS011;67726;45.636;11.752;2023-03-08T00:17:36;76.10;;;35.70;;
78053;SDS011;67726;45.636;11.752;2023-03-08T00:20:03;75.45;;;34.53;;
78053;SDS011;67726;45.636;11.752;2023-03-08T00:22:34;65.72;;;30.67;;
78053;SDS011;67726;45.636;11.752;2023-03-08T00:25:03;68.25;;;32.35;;
78053;SDS011;67726;45.636;11.752;2023-03-08T00:27:30;64.17;;;31.10;;
78053;SDS011;67726;45.636;11.752;2023-03-08T00:29:56;64.13;;;31.63;;
78053;SDS011;67726;45.636;11.752;2023-03-08T00:32:23;70.65;;;32.83;;
78053;SDS011;67726;45.636;11.752;2023-03-08T00:34:50;75.13;;;33.15;;
78053;SDS011;67726;45.636;11.752;2023-03-08T00:37:16;72.65;;;33.15;;
78053;SDS011;67726;45.636;11.752;2023-03-08T00:39:41;74.20;;;31.90;;
78053;SDS011;67726;45.636;11.752;2023-03-08T00:42:07;75.82;;;35.15;;
78053;SDS011;67726;45.636;11.752;2023-03-08T00:44:33;79.30;;;37.83;;
78053;SDS011;67726;45.636;11.752;2023-03-08T00:46:59;75.43;;;34.38;;
78053;SDS011;67726;45.636;11.752;2023-03-08T00:49:24;77.20;;;35.23;;
78053;SDS011;67726;45.636;11.752;2023-03-08T00:51:50;79.20;;;37.45;;
78053;SDS011;67726;45.636;11.752;2023-03-08T00:54:16;83.37;;;37.37;;
78053;SDS011;67726;45.636;11.752;2023-03-08T00:56:41;77.25;;;37.28;;
78053;SDS011;67726;45.636;11.752;2023-03-08T00:59:07;84.37;;;38.03;;
78053;SDS011;67726;45.636;11.752;2023-03-08T01:01:33;74.63;;;35.07;;
78053;SDS011;67726;45.636;11.752;2023-03-08T01:03:58;75.20;;;35.35;;
78053;SDS011;67726;45.636;11.752;2023-03-08T01:06:25;77.63;;;38.08;;
78053;SDS011;67726;45.636;11.752;2023-03-08T01:08:51;77.70;;;36.73;;
78053;SDS011;67726;45.636;11.752;2023-03-08T01:11:18;74.47;;;35.42;;
78053;SDS011;67726;45.636;11.752;2023-03-08T01:13:46;75.40;;;37.13;;
78053;SDS011;67726;45.636;11.752;2023-03-08T01:16:14;78.22;;;39.40;;
78053;SDS011;67726;45.636;11.752;2023-03-08T01:18:51;107.05;;;48.17;;
78053;SDS011;67726;45.636;11.752;2023-03-08T01:21:17;107.57;;;49.58;;
78053;SDS011;67726;45.636;11.752;2023-03-08T01:23:42;111.23;;;49.40;;
78053;SDS011;67726;45.636;11.752;2023-03-08T01:26:15;119.50;;;54.15;;
78053;SDS011;67726;45.636;11.752;2023-03-08T01:28:42;104.50;;;48.72;;
78053;SDS011;67726;45.636;11.752;2023-03-08T01:31:12;103.47;;;50.13;;
78053;SDS011;67726;45.636;11.752;2023-03-08T01:33:40;117.30;;;49.45;;
78053;SDS011;67726;45.636;11.752;2023-03-08T01:36:07;103.88;;;49.40;;
78053;SDS011;67726;45.636;11.752;2023-03-08T01:38:34;106.93;;;48.53;;
78053;SDS011;67726;45.636;11.752;2023-03-08T01:41:01;127.00;;;59.25;;
78053;SDS011;67726;45.636;11.752;2023-03-08T01:43:29;107.40;;;51.15;;
78053;SDS011;67726;45.636;11.752;2023-03-08T01:51:42;84.40;;;40.60;;
78053;SDS011;67726;45.636;11.752;2023-03-08T01:56:52;90.07;;;41.83;;
78053;SDS011;67726;45.636;11.752;2023-03-08T01:59:22;90.65;;;44.75;;
78053;SDS011;67726;45.636;11.752;2023-03-08T02:01:48;91.20;;;42.33;;
78053;SDS011;67726;45.636;11.752;2023-03-08T02:04:14;81.33;;;37.07;;
78053;SDS011;67726;45.636;11.752;2023-03-08T02:06:39;89.03;;;40.70;;
78053;SDS011;67726;45.636;11.752;2023-03-08T02:09:07;79.20;;;38.45;;
78053;SDS011;67726;45.636;11.752;2023-03-08T02:11:33;91.37;;;42.07;;
78053;SDS011;67726;45.636;11.752;2023-03-08T02:14:01;85.43;;;38.55;;
78053;SDS011;67726;45.636;11.752;2023-03-08T02:16:26;82.25;;;39.85;;
78053;SDS011;67726;45.636;11.752;2023-03-08T02:18:56;88.27;;;39.73;;
78053;SDS011;67726;45.636;11.752;2023-03-08T02:21:25;88.47;;;39.95;;
78053;SDS011;67726;45.636;11.752;2023-03-08T02:23:52;86.63;;;40.88;;
78053;SDS011;67726;45.636;11.752;2023-03-08T02:26:18;90.10;;;41.33;;
78053;SDS011;67726;45.636;11.752;2023-03-08T02:28:44;88.13;;;41.70;;
78053;SDS011;67726;45.636;11.752;2023-03-08T02:31:10;86.82;;;42.20;;
78053;SDS011;67726;45.636;11.752;2023-03-08T02:33:36;74.00;;;36.50;;
78053;SDS011;67726;45.636;11.752;2023-03-08T02:36:02;86.50;;;36.70;;
78053;SDS011;67726;45.636;11.752;2023-03-08T02:38:29;84.75;;;40.03;;
78053;SDS011;67726;45.636;11.752;2023-03-08T02:40:55;87.15;;;40.42;;
78053;SDS011;67726;45.636;11.752;2023-03-08T02:43:21;78.47;;;38.73;;
78053;SDS011;67726;45.636;11.752;2023-03-08T02:45:47;79.22;;;37.97;;
78053;SDS011;67726;45.636;11.752;2023-03-08T02:48:13;81.00;;;37.70;;
78053;SDS011;67726;45.636;11.752;2023-03-08T02:50:39;89.22;;;41.25;;
78053;SDS011;67726;45.636;11.752;2023-03-08T02:53:05;79.63;;;36.87;;
78053;SDS011;67726;45.636;11.752;2023-03-08T02:55:31;82.18;;;40.53;;
78053;SDS011;67726;45.636;11.752;2023-03-08T02:58:00;78.13;;;38.97;;
78053;SDS011;67726;45.636;11.752;2023-03-08T03:00:27;79.90;;;37.53;;
78053;SDS011;67726;45.636;11.752;2023-03-08T03:02:52;73.88;;;36.58;;
78053;SDS011;67726;45.636;11.752;2023-03-08T03:05:18;76.10;;;35.40;;
78053;SDS011;67726;45.636;11.752;2023-03-08T03:07:44;81.60;;;37.75;;
78053;SDS011;67726;45.636;11.752;2023-03-08T03:10:10;74.77;;;38.00;;
78053;SDS011;67726;45.636;11.752;2023-03-08T03:12:37;80.25;;;38.67;;
78053;SDS011;67726;45.636;11.752;2023-03-08T03:15:03;75.65;;;36.22;;
78053;SDS011;67726;45.636;11.752;2023-03-08T03:17:31;83.80;;;37.70;;
78053;SDS011;67726;45.636;11.752;2023-03-08T03:19:56;75.03;;;35.23;;
78053;SDS011;67726;45.636;11.752;2023-03-08T03:22:22;81.72;;;37.22;;
78053;SDS011;67726;45.636;11.752;2023-03-08T03:24:51;70.23;;;36.53;;
78053;SDS011;67726;45.636;11.752;2023-03-08T03:27:17;74.80;;;36.50;;
78053;SDS011;67726;45.636;11.752;2023-03-08T03:29:43;84.88;;;35.70;;
78053;SDS011;67726;45.636;11.752;2023-03-08T03:32:09;76.83;;;37.27;;
78053;SDS011;67726;45.636;11.752;2023-03-08T03:34:35;78.43;;;36.60;;
78053;SDS011;67726;45.636;11.752;2023-03-08T03:37:01;75.60;;;35.85;;
78053;SDS011;67726;45.636;11.752;2023-03-08T03:39:26;78.30;;;36.33;;
78053;SDS011;67726;45.636;11.752;2023-03-08T03:41:57;73.13;;;34.72;;
78053;SDS011;67726;45.636;11.752;2023-03-08T03:44:23;71.20;;;35.05;;
78053;SDS011;67726;45.636;11.752;2023-03-08T03:46:49;79.43;;;36.13;;
78053;SDS011;67726;45.636;11.752;2023-03-08T03:49:15;82.65;;;38.78;;
78053;SDS011;67726;45.636;11.752;2023-03-08T03:51:40;84.87;;;38.23;;
78053;SDS011;67726;45.636;11.752;2023-03-08T03:54:06;78.00;;;37.87;;
78053;SDS011;67726;45.636;11.752;2023-03-08T03:56:32;79.93;;;36.42;;
78053;SDS011;67726;45.636;11.752;2023-03-08T03:58:57;75.80;;;37.47;;
78053;SDS011;67726;45.636;11.752;2023-03-08T04:01:27;72.20;;;34.80;;
78053;SDS011;67726;45.636;11.752;2023-03-08T04:03:54;78.88;;;38.17;;
78053;SDS011;67726;45.636;11.752;2023-03-08T04:06:27;82.93;;;35.70;;
78053;SDS011;67726;45.636;11.752;2023-03-08T04:08:55;80.15;;;37.17;;
78053;SDS011;67726;45.636;11.752;2023-03-08T04:11:25;75.18;;;34.80;;
78053;SDS011;67726;45.636;11.752;2023-03-08T04:13:52;66.82;;;32.67;;
78053;SDS011;67726;45.636;11.752;2023-03-08T04:16:19;73.15;;;35.17;;
78053;SDS011;67726;45.636;11.752;2023-03-08T04:18:47;68.43;;;32.63;;
78053;SDS011;67726;45.636;11.752;2023-03-08T04:21:17;75.93;;;34.63;;
78053;SDS011;67726;45.636;11.752;2023-03-08T04:23:43;79.18;;;35.10;;
78053;SDS011;67726;45.636;11.752;2023-03-08T04:26:08;72.33;;;34.47;;
78053;SDS011;67726;45.636;11.752;2023-03-08T04:28:34;72.30;;;34.70;;
78053;SDS011;67726;45.636;11.752;2023-03-08T04:31:10;69.30;;;33.42;;
78053;SDS011;67726;45.636;11.752;2023-03-08T04:33:40;73.43;;;32.92;;
78053;SDS011;67726;45.636;11.752;2023-03-08T04:36:06;66.68;;;33.33;;
78053;SDS011;67726;45.636;11.752;2023-03-08T04:38:32;69.30;;;33.10;;
78053;SDS011;67726;45.636;11.752;2023-03-08T04:40:58;69.88;;;33.70;;
78053;SDS011;67726;45.636;11.752;2023-03-08T04:43:30;68.47;;;33.08;;
78053;SDS011;67726;45.636;11.752;2023-03-08T04:45:57;111.63;;;50.47;;
78053;SDS011;67726;45.636;11.752;2023-03-08T04:48:22;106.57;;;48.63;;
78053;SDS011;67726;45.636;11.752;2023-03-08T04:50:52;96.57;;;43.08;;
78053;SDS011;67726;45.636;11.752;2023-03-08T04:53:22;87.57;;;40.00;;
78053;SDS011;67726;45.636;11.752;2023-03-08T04:55:48;94.80;;;43.70;;
78053;SDS011;67726;45.636;11.752;2023-03-08T04:58:14;93.15;;;42.92;;
78053;SDS011;67726;45.636;11.752;2023-03-08T05:00:40;80.47;;;38.87;;
78053;SDS011;67726;45.636;11.752;2023-03-08T05:03:06;73.87;;;35.73;;
78053;SDS011;67726;45.636;11.752;2023-03-08T05:05:31;78.75;;;36.80;;
78053;SDS011;67726;45.636;11.752;2023-03-08T05:07:57;76.97;;;35.67;;
78053;SDS011;67726;45.636;11.752;2023-03-08T05:10:32;72.03;;;33.83;;
78053;SDS011;67726;45.636;11.752;2023-03-08T05:12:57;64.25;;;31.65;;
78053;SDS011;67726;45.636;11.752;2023-03-08T05:15:23;65.90;;;30.60;;
78053;SDS011;67726;45.636;11.752;2023-03-08T05:17:49;62.65;;;30.90;;
78053;SDS011;67726;45.636;11.752;2023-03-08T05:20:15;61.28;;;30.40;;
78053;SDS011;67726;45.636;11.752;2023-03-08T05:22:41;59.63;;;30.40;;
78053;SDS011;67726;45.636;11.752;2023-03-08T05:25:08;65.38;;;30.23;;
78053;SDS011;67726;45.636;11.752;2023-03-08T05:27:34;62.40;;;29.43;;
78053;SDS011;67726;45.636;11.752;2023-03-08T05:30:01;68.28;;;30.83;;
78053;SDS011;67726;45.636;11.752;2023-03-08T05:32:28;61.88;;;28.60;;
78053;SDS011;67726;45.636;11.752;2023-03-08T05:34:53;63.80;;;28.67;;
78053;SDS011;67726;45.636;11.752;2023-03-08T05:37:19;68.88;;;28.70;;
78053;SDS011;67726;45.636;11.752;2023-03-08T05:39:46;63.58;;;31.02;;
78053;SDS011;67726;45.636;11.752;2023-03-08T05:42:12;59.00;;;29.07;;
78053;SDS011;67726;45.636;11.752;2023-03-08T05:44:38;63.15;;;28.17;;
78053;SDS011;67726;45.636;11.752;2023-03-08T05:47:03;60.47;;;28.53;;
78053;SDS011;67726;45.636;11.752;2023-03-08T05:49:29;61.28;;;28.60;;
78053;SDS011;67726;45.636;11.752;2023-03-08T05:51:55;62.17;;;26.77;;
78053;SDS011;67726;45.636;11.752;2023-03-08T05:54:21;53.63;;;28.23;;
78053;SDS011;67726;45.636;11.752;2023-03-08T05:56:46;55.97;;;27.57;;
78053;SDS011;67726;45.636;11.752;2023-03-08T05:59:12;56.67;;;28.58;;
78053;SDS011;67726;45.636;11.752;2023-03-08T06:01:38;65.07;;;29.02;;
78053;SDS011;67726;45.636;11.752;2023-03-08T06:04:03;65.27;;;30.37;;
78053;SDS011;67726;45.636;11.752;2023-03-08T06:06:29;61.20;;;28.10;;
78053;SDS011;67726;45.636;11.752;2023-03-08T06:08:55;58.43;;;27.70;;
78053;SDS011;67726;45.636;11.752;2023-03-08T06:11:21;66.78;;;30.42;;
78053;SDS011;67726;45.636;11.752;2023-03-08T06:13:47;80.80;;;37.10;;
78053;SDS011;67726;45.636;11.752;2023-03-08T06:16:13;109.70;;;43.00;;
78053;SDS011;67726;45.636;11.752;2023-03-08T06:18:39;105.05;;;42.00;;
78053;SDS011;67726;45.636;11.752;2023-03-08T06:21:07;94.33;;;37.53;;
78053;SDS011;67726;45.636;11.752;2023-03-08T06:23:37;81.00;;;34.67;;
78053;SDS011;67726;45.636;11.752;2023-03-08T06:26:04;86.00;;;35.95;;
78053;SDS011;67726;45.636;11.752;2023-03-08T06:28:30;71.07;;;32.80;;
78053;SDS011;67726;45.636;11.752;2023-03-08T06:30:56;111.10;;;44.00;;
78053;SDS011;67726;45.636;11.752;2023-03-08T06:33:23;115.60;;;46.20;;
78053;SDS011;67726;45.636;11.752;2023-03-08T06:36:02;117.35;;;45.83;;
78053;SDS011;67726;45.636;11.752;2023-03-08T06:38:30;69.53;;;30.70;;
78053;SDS011;67726;45.636;11.752;2023-03-08T06:40:57;57.47;;;26.88;;
78053;SDS011;67726;45.636;11.752;2023-03-08T06:43:23;53.80;;;28.90;;
78053;SDS011;67726;45.636;11.752;2023-03-08T06:45:49;63.55;;;30.90;;
78053;SDS011;67726;45.636;11.752;2023-03-08T06:48:15;60.03;;;29.70;;
78053;SDS011;67726;45.636;11.752;2023-03-08T06:50:41;48.72;;;25.17;;
78053;SDS011;67726;45.636;11.752;2023-03-08T06:53:07;44.40;;;23.53;;
78053;SDS011;67726;45.636;11.752;2023-03-08T06:55:33;51.70;;;24.35;;
78053;SDS011;67726;45.636;11.752;2023-03-08T06:58:03;46.67;;;21.92;;
78053;SDS011;67726;45.636;11.752;2023-03-08T07:00:29;47.83;;;25.33;;
78053;SDS011;67726;45.636;11.752;2023-03-08T07:02:55;52.50;;;23.60;;
78053;SDS011;67726;45.636;11.752;2023-03-08T07:05:21;51.17;;;24.30;;
78053;SDS011;67726;45.636;11.752;2023-03-08T07:07:47;50.38;;;25.40;;
78053;SDS011;67726;45.636;11.752;2023-03-08T07:10:13;47.90;;;23.80;;
78053;SDS011;67726;45.636;11.752;2023-03-08T07:12:42;59.60;;;26.17;;
78053;SDS011;67726;45.636;11.752;2023-03-08T07:15:12;53.28;;;24.92;;
78053;SDS011;67726;45.636;11.752;2023-03-08T07:17:42;53.58;;;25.02;;
78053;SDS011;67726;45.636;11.752;2023-03-08T07:20:09;50.67;;;25.20;;
78053;SDS011;67726;45.636;11.752;2023-03-08T07:22:37;51.77;;;24.37;;
78053;SDS011;67726;45.636;11.752;2023-03-08T07:25:03;50.22;;;24.70;;
78053;SDS011;67726;45.636;11.752;2023-03-08T07:27:29;50.80;;;24.50;;
78053;SDS011;67726;45.636;11.752;2023-03-08T07:29:55;49.07;;;23.97;;
78053;SDS011;67726;45.636;11.752;2023-03-08T07:32:20;43.08;;;22.38;;
78053;SDS011;67726;45.636;11.752;2023-03-08T07:34:47;48.63;;;23.58;;
78053;SDS011;67726;45.636;11.752;2023-03-08T07:37:16;43.23;;;21.93;;
78053;SDS011;67726;45.636;11.752;2023-03-08T07:39:41;43.35;;;21.83;;
78053;SDS011;67726;45.636;11.752;2023-03-08T07:42:08;45.00;;;23.23;;
78053;SDS011;67726;45.636;11.752;2023-03-08T07:44:35;45.08;;;23.33;;
78053;SDS011;67726;45.636;11.752;2023-03-08T07:47:06;51.05;;;24.88;;
78053;SDS011;67726;45.636;11.752;2023-03-08T07:49:32;46.40;;;23.67;;
78053;SDS011;67726;45.636;11.752;2023-03-08T07:51:58;47.03;;;22.53;;
78053;SDS011;67726;45.636;11.752;2023-03-08T07:54:24;45.47;;;22.08;;
78053;SDS011;67726;45.636;11.752;2023-03-08T07:56:53;55.13;;;30.25;;
78053;SDS011;67726;45.636;11.752;2023-03-08T07:59:19;59.33;;;30.47;;
78053;SDS011;67726;45.636;11.752;2023-03-08T08:01:46;46.50;;;24.08;;
78053;SDS011;67726;45.636;11.752;2023-03-08T08:04:11;49.20;;;25.33;;
78053;SDS011;67726;45.636;11.752;2023-03-08T08:06:37;54.37;;;28.63;;
78053;SDS011;67726;45.636;11.752;2023-03-08T08:09:04;40.85;;;21.50;;
78053;SDS011;67726;45.636;11.752;2023-03-08T08:11:31;39.28;;;21.02;;
78053;SDS011;67726;45.636;11.752;2023-03-08T08:13:58;38.88;;;20.88;;
78053;SDS011;67726;45.636;11.752;2023-03-08T08:16:24;40.87;;;19.87;;
78053;SDS011;67726;45.636;11.752;2023-03-08T08:18:50;38.00;;;18.90;;
78053;SDS011;67726;45.636;11.752;2023-03-08T08:21:16;34.85;;;19.52;;
78053;SDS011;67726;45.636;11.752;2023-03-08T08:23:42;37.83;;;18.30;;
78053;SDS011;67726;45.636;11.752;2023-03-08T08:26:12;37.75;;;19.40;;
78053;SDS011;67726;45.636;11.752;2023-03-08T08:28:43;36.60;;;18.35;;
78053;SDS011;67726;45.636;11.752;2023-03-08T08:31:11;33.87;;;18.83;;
78053;SDS011;67726;45.636;11.752;2023-03-08T08:33:39;39.28;;;18.02;;
78053;SDS011;67726;45.636;11.752;2023-03-08T08:36:06;33.55;;;17.95;;
78053;SDS011;67726;45.636;11.752;2023-03-08T08:38:33;35.05;;;18.38;;
78053;SDS011;67726;45.636;11.752;2023-03-08T08:40:59;35.57;;;19.00;;
78053;SDS011;67726;45.636;11.752;2023-03-08T08:43:26;34.22;;;18.33;;
78053;SDS011;67726;45.636;11.752;2023-03-08T08:45:53;32.70;;;18.98;;
78053;SDS011;67726;45.636;11.752;2023-03-08T08:48:20;34.63;;;18.70;;
78053;SDS011;67726;45.636;11.752;2023-03-08T08:50:47;34.22;;;17.58;;
78053;SDS011;67726;45.636;11.752;2023-03-08T08:53:12;37.50;;;18.03;;
78053;SDS011;67726;45.636;11.752;2023-03-08T08:55:38;36.28;;;18.75;;
78053;SDS011;67726;45.636;11.752;2023-03-08T08:58:04;31.97;;;18.37;;
78053;SDS011;67726;45.636;11.752;2023-03-08T09:00:31;31.58;;;17.35;;
78053;SDS011;67726;45.636;11.752;2023-03-08T09:02:58;31.58;;;17.45;;
78053;SDS011;67726;45.636;11.752;2023-03-08T09:05:24;28.67;;;15.57;;
78053;SDS011;67726;45.636;11.752;2023-03-08T09:07:53;27.93;;;15.47;;
78053;SDS011;67726;45.636;11.752;2023-03-08T09:10:22;31.90;;;14.43;;
78053;SDS011;67726;45.636;11.752;2023-03-08T09:12:48;29.05;;;14.05;;
78053;SDS011;67726;45.636;11.752;2023-03-08T09:15:14;31.92;;;16.10;;
78053;SDS011;67726;45.636;11.752;2023-03-08T09:17:40;28.80;;;15.60;;
78053;SDS011;67726;45.636;11.752;2023-03-08T09:20:06;31.25;;;15.32;;
78053;SDS011;67726;45.636;11.752;2023-03-08T09:22:35;27.35;;;15.73;;
78053;SDS011;67726;45.636;11.752;2023-03-08T09:25:02;29.47;;;15.27;;
78053;SDS011;67726;45.636;11.752;2023-03-08T09:27:29;29.27;;;15.52;;
78053;SDS011;67726;45.636;11.752;2023-03-08T09:29:54;30.10;;;16.15;;
78053;SDS011;67726;45.636;11.752;2023-03-08T09:32:20;30.10;;;15.97;;
78053;SDS011;67726;45.636;11.752;2023-03-08T09:34:45;30.97;;;16.00;;
78053;SDS011;67726;45.636;11.752;2023-03-08T09:37:11;28.67;;;15.93;;
78053;SDS011;67726;45.636;11.752;2023-03-08T09:39:37;28.10;;;15.90;;
78053;SDS011;67726;45.636;11.752;2023-03-08T09:42:04;32.03;;;17.10;;
78053;SDS011;67726;45.636;11.752;2023-03-08T09:53:16;32.22;;;15.98;;
78053;SDS011;67726;45.636;11.752;2023-03-08T09:56:19;29.70;;;15.63;;
78053;SDS011;67726;45.636;11.752;2023-03-08T09:58:57;29.57;;;15.47;;
78053;SDS011;67726;45.636;11.752;2023-03-08T10:01:51;31.42;;;15.63;;
78053;SDS011;67726;45.636;11.752;2023-03-08T10:09:56;28.38;;;15.88;;
78053;SDS011;67726;45.636;11.752;2023-03-08T10:12:51;33.00;;;17.27;;
78053;SDS011;67726;45.636;11.752;2023-03-08T10:15:27;29.10;;;15.75;;
78053;SDS011;67726;45.636;11.752;2023-03-08T10:17:56;30.17;;;16.27;;
78053;SDS011;67726;45.636;11.752;2023-03-08T10:20:34;26.33;;;12.90;;
78053;SDS011;67726;45.636;11.752;2023-03-08T10:23:18;26.95;;;14.20;;
78053;SDS011;67726;45.636;11.752;2023-03-08T10:25:46;26.93;;;14.70;;
78053;SDS011;67726;45.636;11.752;2023-03-08T10:28:14;28.02;;;13.85;;
78053;SDS011;67726;45.636;11.752;2023-03-08T10:30:49;30.17;;;14.05;;
78053;SDS011;67726;45.636;11.752;2023-03-08T10:33:16;28.17;;;13.98;;
78053;SDS011;67726;45.636;11.752;2023-03-08T10:38:31;30.30;;;13.47;;
78053;SDS011;67726;45.636;11.752;2023-03-08T10:41:19;23.58;;;12.27;;
78053;SDS011;67726;45.636;11.752;2023-03-08T10:43:46;26.40;;;13.75;;
78053;SDS011;67726;45.636;11.752;2023-03-08T10:46:17;28.33;;;14.60;;
78053;SDS011;67726;45.636;11.752;2023-03-08T10:48:44;26.00;;;14.15;;
78053;SDS011;67726;45.636;11.752;2023-03-08T10:51:28;27.53;;;15.00;;
78053;SDS011;67726;45.636;11.752;2023-03-08T10:54:00;30.33;;;12.95;;
78053;SDS011;67726;45.636;11.752;2023-03-08T10:57:11;23.67;;;13.88;;
78053;SDS011;67726;45.636;11.752;2023-03-08T10:59:33;29.15;;;15.48;;
78053;SDS011;67726;45.636;11.752;2023-03-08T11:02:22;31.73;;;15.63;;
78053;SDS011;67726;45.636;11.752;2023-03-08T11:04:52;25.80;;;14.93;;
78053;SDS011;67726;45.636;11.752;2023-03-08T11:07:21;28.65;;;15.77;;
78053;SDS011;67726;45.636;11.752;2023-03-08T11:09:49;26.55;;;14.98;;
78053;SDS011;67726;45.636;11.752;2023-03-08T11:12:22;34.58;;;16.90;;
78053;SDS011;67726;45.636;11.752;2023-03-08T11:14:49;33.35;;;17.45;;
78053;SDS011;67726;45.636;11.752;2023-03-08T11:20:15;31.08;;;15.77;;
78053;SDS011;67726;45.636;11.752;2023-03-08T11:23:06;26.15;;;15.70;;
78053;SDS011;67726;45.636;11.752;2023-03-08T11:25:43;28.80;;;15.57;;
78053;SDS011;67726;45.636;11.752;2023-03-08T11:28:31;26.05;;;14.05;;
78053;SDS011;67726;45.636;11.752;2023-03-08T11:31:13;28.07;;;13.40;;
78053;SDS011;67726;45.636;11.752;2023-03-08T11:36:49;29.00;;;14.93;;
78053;SDS011;67726;45.636;11.752;2023-03-08T11:39:27;31.92;;;14.63;;
78053;SDS011;67726;45.636;11.752;2023-03-08T11:42:05;30.13;;;15.10;;
78053;SDS011;67726;45.636;11.752;2023-03-08T11:44:59;25.00;;;15.00;;
78053;SDS011;67726;45.636;11.752;2023-03-08T11:55:32;27.13;;;15.45;;
78053;SDS011;67726;45.636;11.752;2023-03-08T12:00:47;24.95;;;14.63;;
78053;SDS011;67726;45.636;11.752;2023-03-08T12:03:17;28.45;;;15.10;;
78053;SDS011;67726;45.636;11.752;2023-03-08T12:06:29;26.33;;;14.10;;
78053;SDS011;67726;45.636;11.752;2023-03-08T12:09:04;30.40;;;15.10;;
78053;SDS011;67726;45.636;11.752;2023-03-08T12:11:41;28.50;;;16.00;;
78053;SDS011;67726;45.636;11.752;2023-03-08T12:16:53;30.25;;;14.10;;
78053;SDS011;67726;45.636;11.752;2023-03-08T12:24:50;26.40;;;14.87;;
78053;SDS011;67726;45.636;11.752;2023-03-08T12:27:38;26.83;;;15.02;;
78053;SDS011;67726;45.636;11.752;2023-03-08T12:32:57;28.05;;;14.63;;
78053;SDS011;67726;45.636;11.752;2023-03-08T12:35:28;27.52;;;14.05;;
78053;SDS011;67726;45.636;11.752;2023-03-08T12:43:13;33.72;;;14.80;;
78053;SDS011;67726;45.636;11.752;2023-03-08T12:45:45;32.73;;;15.40;;
78053;SDS011;67726;45.636;11.752;2023-03-08T12:48:22;24.55;;;14.60;;
78053;SDS011;67726;45.636;11.752;2023-03-08T12:51:02;25.95;;;15.07;;
78053;SDS011;67726;45.636;11.752;2023-03-08T12:53:33;30.08;;;15.55;;
78053;SDS011;67726;45.636;11.752;2023-03-08T12:56:03;26.52;;;15.55;;
78053;SDS011;67726;45.636;11.752;2023-03-08T12:58:57;27.30;;;15.43;;
78053;SDS011;67726;45.636;11.752;2023-03-08T13:01:28;30.45;;;15.40;;
78053;SDS011;67726;45.636;11.752;2023-03-08T13:04:06;32.05;;;15.73;;
78053;SDS011;67726;45.636;11.752;2023-03-08T13:14:43;32.15;;;15.20;;
78053;SDS011;67726;45.636;11.752;2023-03-08T13:28:19;29.50;;;15.07;;
78053;SDS011;67726;45.636;11.752;2023-03-08T13:30:54;29.05;;;14.98;;
78053;SDS011;67726;45.636;11.752;2023-03-08T13:33:25;26.42;;;14.60;;
78053;SDS011;67726;45.636;11.752;2023-03-08T13:36:01;27.35;;;13.52;;
78053;SDS011;67726;45.636;11.752;2023-03-08T13:38:32;29.23;;;12.90;;
78053;SDS011;67726;45.636;11.752;2023-03-08T13:41:00;22.50;;;14.07;;
78053;SDS011;67726;45.636;11.752;2023-03-08T13:43:27;26.50;;;13.45;;
78053;SDS011;67726;45.636;11.752;2023-03-08T13:45:55;25.30;;;14.60;;
78053;SDS011;67726;45.636;11.752;2023-03-08T13:48:23;25.85;;;13.93;;
78053;SDS011;67726;45.636;11.752;2023-03-08T13:50:53;24.52;;;13.80;;
78053;SDS011;67726;45.636;11.752;2023-03-08T13:53:20;25.80;;;14.00;;
78053;SDS011;67726;45.636;11.752;2023-03-08T13:55:53;24.20;;;13.85;;
78053;SDS011;67726;45.636;11.752;2023-03-08T13:58:25;23.13;;;13.13;;
78053;SDS011;67726;45.636;11.752;2023-03-08T14:03:40;24.08;;;13.13;;
78053;SDS011;67726;45.636;11.752;2023-03-08T14:06:17;25.33;;;12.53;;
78053;SDS011;67726;45.636;11.752;2023-03-08T14:08:44;23.50;;;12.18;;
78053;SDS011;67726;45.636;11.752;2023-03-08T14:11:21;21.27;;;11.55;;
78053;SDS011;67726;45.636;11.752;2023-03-08T14:13:49;18.35;;;10.88;;
78053;SDS011;67726;45.636;11.752;2023-03-08T14:16:26;22.05;;;11.85;;
78053;SDS011;67726;45.636;11.752;2023-03-08T14:18:59;21.20;;;11.40;;
78053;SDS011;67726;45.636;11.752;2023-03-08T14:21:33;26.20;;;12.15;;
78053;SDS011;67726;45.636;11.752;2023-03-08T14:24:00;24.15;;;11.52;;
78053;SDS011;67726;45.636;11.752;2023-03-08T14:29:13;34.53;;;17.13;;
78053;SDS011;67726;45.636;11.752;2023-03-08T14:34:26;23.52;;;12.45;;
78053;SDS011;67726;45.636;11.752;2023-03-08T14:36:58;23.92;;;12.32;;
78053;SDS011;67726;45.636;11.752;2023-03-08T14:39:26;29.80;;;13.00;;
78053;SDS011;67726;45.636;11.752;2023-03-08T14:41:54;24.80;;;13.00;;
78053;SDS011;67726;45.636;11.752;2023-03-08T14:44:25;25.35;;;12.98;;
78053;SDS011;67726;45.636;11.752;2023-03-08T14:46:52;28.23;;;14.40;;
78053;SDS011;67726;45.636;11.752;2023-03-08T14:49:23;29.45;;;13.88;;
78053;SDS011;67726;45.636;11.752;2023-03-08T14:51:53;30.02;;;14.38;;
78053;SDS011;67726;45.636;11.752;2023-03-08T14:54:30;27.47;;;14.43;;
78053;SDS011;67726;45.636;11.752;2023-03-08T14:57:12;26.38;;;14.23;;
78053;SDS011;67726;45.636;11.752;2023-03-08T14:59:39;27.73;;;14.43;;
78053;SDS011;67726;45.636;11.752;2023-03-08T15:02:10;27.98;;;14.23;;
78053;SDS011;67726;45.636;11.752;2023-03-08T15:04:36;26.98;;;14.02;;
78053;SDS011;67726;45.636;11.752;2023-03-08T15:07:02;30.87;;;14.27;;
78053;SDS011;67726;45.636;11.752;2023-03-08T15:09:28;29.02;;;14.77;;
78053;SDS011;67726;45.636;11.752;2023-03-08T15:11:56;27.85;;;14.85;;
78053;SDS011;67726;45.636;11.752;2023-03-08T15:14:24;29.10;;;14.65;;
78053;SDS011;67726;45.636;11.752;2023-03-08T15:16:50;32.10;;;15.00;;
78053;SDS011;67726;45.636;11.752;2023-03-08T15:19:19;26.47;;;14.70;;
78053;SDS011;67726;45.636;11.752;2023-03-08T15:21:45;27.33;;;14.50;;
78053;SDS011;67726;45.636;11.752;2023-03-08T15:24:15;27.73;;;14.88;;
78053;SDS011;67726;45.636;11.752;2023-03-08T15:26:43;28.50;;;13.77;;
78053;SDS011;67726;45.636;11.752;2023-03-08T15:29:19;25.75;;;14.05;;
78053;SDS011;67726;45.636;11.752;2023-03-08T15:31:52;32.23;;;14.50;;
78053;SDS011;67726;45.636;11.752;2023-03-08T15:34:19;29.08;;;14.48;;
78053;SDS011;67726;45.636;11.752;2023-03-08T15:36:45;31.20;;;14.68;;
78053;SDS011;67726;45.636;11.752;2023-03-08T15:39:12;31.88;;;16.33;;
78053;SDS011;67726;45.636;11.752;2023-03-08T15:41:38;30.93;;;15.67;;
78053;SDS011;67726;45.636;11.752;2023-03-08T15:44:04;32.13;;;15.45;;